sensor_id;sensor_type;location;lat;lon;timestamp;P1;durP1;ratioP1;P2;durP2;ratioP2
65855;SDS011;52631;42.208;24.656;2023-07-13T00:00:26;12.23;;;8.93;;
65855;SDS011;52631;42.208;24.656;2023-07-13T00:02:52;11.13;;;9.00;;
65855;SDS011;52631;42.208;24.656;2023-07-13T00:05:21;11.70;;;9.20;;
65855;SDS011;52631;42.208;24.656;2023-07-13T00:07:47;12.77;;;9.45;;
65855;SDS011;52631;42.208;24.656;2023-07-13T00:10:13;12.48;;;8.80;;
65855;SDS011;52631;42.208;24.656;2023-07-13T00:12:39;13.55;;;8.50;;
65855;SDS011;52631;42.208;24.656;2023-07-13T00:15:09;13.90;;;9.50;;
65855;SDS011;52631;42.208;24.656;2023-07-13T00:17:41;12.52;;;9.70;;
65855;SDS011;52631;42.208;24.656;2023-07-13T00:20:09;14.68;;;10.82;;
65855;SDS011;52631;42.208;24.656;2023-07-13T00:22:35;11.68;;;9.45;;
65855;SDS011;52631;42.208;24.656;2023-07-13T00:25:01;15.98;;;10.70;;
65855;SDS011;52631;42.208;24.656;2023-07-13T00:27:26;12.23;;;9.70;;
65855;SDS011;52631;42.208;24.656;2023-07-13T00:29:52;12.63;;;9.43;;
65855;SDS011;52631;42.208;24.656;2023-07-13T00:32:18;14.15;;;9.98;;
65855;SDS011;52631;42.208;24.656;2023-07-13T00:34:43;12.02;;;9.20;;
65855;SDS011;52631;42.208;24.656;2023-07-13T00:37:09;12.52;;;9.60;;
65855;SDS011;52631;42.208;24.656;2023-07-13T00:39:35;13.45;;;9.48;;
65855;SDS011;52631;42.208;24.656;2023-07-13T00:42:01;13.38;;;9.32;;
65855;SDS011;52631;42.208;24.656;2023-07-13T00:44:27;12.38;;;8.98;;
65855;SDS011;52631;42.208;24.656;2023-07-13T00:46:53;12.07;;;9.82;;
65855;SDS011;52631;42.208;24.656;2023-07-13T00:49:22;12.43;;;9.68;;
65855;SDS011;52631;42.208;24.656;2023-07-13T00:51:49;13.32;;;10.30;;
65855;SDS011;52631;42.208;24.656;2023-07-13T00:54:18;15.07;;;9.88;;
65855;SDS011;52631;42.208;24.656;2023-07-13T00:56:47;13.98;;;9.95;;
65855;SDS011;52631;42.208;24.656;2023-07-13T00:59:14;14.38;;;10.05;;
65855;SDS011;52631;42.208;24.656;2023-07-13T01:01:40;13.80;;;9.60;;
65855;SDS011;52631;42.208;24.656;2023-07-13T01:04:06;12.20;;;9.88;;
65855;SDS011;52631;42.208;24.656;2023-07-13T01:06:34;17.38;;;10.70;;
65855;SDS011;52631;42.208;24.656;2023-07-13T01:09:00;13.25;;;10.40;;
65855;SDS011;52631;42.208;24.656;2023-07-13T01:11:26;13.77;;;9.80;;
65855;SDS011;52631;42.208;24.656;2023-07-13T01:13:51;13.40;;;10.18;;
65855;SDS011;52631;42.208;24.656;2023-07-13T01:16:27;12.32;;;9.85;;
65855;SDS011;52631;42.208;24.656;2023-07-13T01:18:54;13.15;;;10.07;;
65855;SDS011;52631;42.208;24.656;2023-07-13T01:21:23;15.63;;;10.68;;
65855;SDS011;52631;42.208;24.656;2023-07-13T01:23:49;12.70;;;9.68;;
65855;SDS011;52631;42.208;24.656;2023-07-13T01:26:15;14.10;;;10.05;;
65855;SDS011;52631;42.208;24.656;2023-07-13T01:28:40;12.88;;;9.70;;
65855;SDS011;52631;42.208;24.656;2023-07-13T01:31:06;13.13;;;10.02;;
65855;SDS011;52631;42.208;24.656;2023-07-13T01:33:31;11.27;;;9.32;;
65855;SDS011;52631;42.208;24.656;2023-07-13T01:35:57;11.48;;;9.10;;
65855;SDS011;52631;42.208;24.656;2023-07-13T01:38:23;12.45;;;9.77;;
65855;SDS011;52631;42.208;24.656;2023-07-13T01:40:49;11.05;;;9.07;;
65855;SDS011;52631;42.208;24.656;2023-07-13T01:43:15;14.20;;;9.48;;
65855;SDS011;52631;42.208;24.656;2023-07-13T01:45:40;12.45;;;9.13;;
65855;SDS011;52631;42.208;24.656;2023-07-13T01:48:06;12.18;;;9.43;;
65855;SDS011;52631;42.208;24.656;2023-07-13T01:50:34;13.65;;;9.85;;
65855;SDS011;52631;42.208;24.656;2023-07-13T01:53:00;12.25;;;9.98;;
65855;SDS011;52631;42.208;24.656;2023-07-13T01:55:25;12.82;;;9.45;;
65855;SDS011;52631;42.208;24.656;2023-07-13T01:57:51;11.60;;;9.63;;
65855;SDS011;52631;42.208;24.656;2023-07-13T02:00:16;12.98;;;9.77;;
65855;SDS011;52631;42.208;24.656;2023-07-13T02:02:43;12.93;;;9.35;;
65855;SDS011;52631;42.208;24.656;2023-07-13T02:05:09;13.60;;;9.15;;
65855;SDS011;52631;42.208;24.656;2023-07-13T02:07:34;16.50;;;10.52;;
65855;SDS011;52631;42.208;24.656;2023-07-13T02:10:00;10.40;;;8.73;;
65855;SDS011;52631;42.208;24.656;2023-07-13T02:12:25;11.80;;;8.98;;
65855;SDS011;52631;42.208;24.656;2023-07-13T02:14:51;11.27;;;8.80;;
65855;SDS011;52631;42.208;24.656;2023-07-13T02:17:16;12.25;;;8.35;;
65855;SDS011;52631;42.208;24.656;2023-07-13T02:19:42;11.38;;;8.68;;
65855;SDS011;52631;42.208;24.656;2023-07-13T02:22:07;15.15;;;9.18;;
65855;SDS011;52631;42.208;24.656;2023-07-13T02:24:33;16.65;;;8.63;;
65855;SDS011;52631;42.208;24.656;2023-07-13T02:26:58;10.75;;;8.55;;
65855;SDS011;52631;42.208;24.656;2023-07-13T02:29:24;14.27;;;9.50;;
65855;SDS011;52631;42.208;24.656;2023-07-13T02:31:49;12.65;;;9.57;;
65855;SDS011;52631;42.208;24.656;2023-07-13T02:34:15;13.73;;;8.75;;
65855;SDS011;52631;42.208;24.656;2023-07-13T02:36:41;10.88;;;8.80;;
65855;SDS011;52631;42.208;24.656;2023-07-13T02:39:06;12.18;;;8.88;;
65855;SDS011;52631;42.208;24.656;2023-07-13T02:41:32;12.50;;;8.63;;
65855;SDS011;52631;42.208;24.656;2023-07-13T02:43:58;13.23;;;9.27;;
65855;SDS011;52631;42.208;24.656;2023-07-13T02:46:35;13.38;;;9.35;;
65855;SDS011;52631;42.208;24.656;2023-07-13T02:49:01;15.55;;;8.82;;
65855;SDS011;52631;42.208;24.656;2023-07-13T02:51:27;12.05;;;8.27;;
65855;SDS011;52631;42.208;24.656;2023-07-13T02:53:53;11.45;;;8.85;;
65855;SDS011;52631;42.208;24.656;2023-07-13T02:56:21;14.48;;;9.00;;
65855;SDS011;52631;42.208;24.656;2023-07-13T02:58:48;12.10;;;8.90;;
65855;SDS011;52631;42.208;24.656;2023-07-13T03:01:13;11.80;;;8.45;;
65855;SDS011;52631;42.208;24.656;2023-07-13T03:03:43;13.98;;;8.95;;
65855;SDS011;52631;42.208;24.656;2023-07-13T03:06:12;12.43;;;9.68;;
65855;SDS011;52631;42.208;24.656;2023-07-13T03:08:38;16.45;;;9.63;;
65855;SDS011;52631;42.208;24.656;2023-07-13T03:11:06;13.25;;;9.57;;
65855;SDS011;52631;42.208;24.656;2023-07-13T03:13:36;14.32;;;9.73;;
65855;SDS011;52631;42.208;24.656;2023-07-13T03:16:02;14.45;;;9.82;;
65855;SDS011;52631;42.208;24.656;2023-07-13T03:18:28;15.13;;;10.38;;
65855;SDS011;52631;42.208;24.656;2023-07-13T03:20:54;13.55;;;9.95;;
65855;SDS011;52631;42.208;24.656;2023-07-13T03:23:19;16.85;;;10.15;;
65855;SDS011;52631;42.208;24.656;2023-07-13T03:25:46;15.48;;;10.18;;
65855;SDS011;52631;42.208;24.656;2023-07-13T03:28:11;15.82;;;10.02;;
65855;SDS011;52631;42.208;24.656;2023-07-13T03:30:37;16.23;;;9.98;;
65855;SDS011;52631;42.208;24.656;2023-07-13T03:33:03;15.45;;;10.20;;
65855;SDS011;52631;42.208;24.656;2023-07-13T03:35:28;15.13;;;10.23;;
65855;SDS011;52631;42.208;24.656;2023-07-13T03:37:54;13.02;;;9.95;;
65855;SDS011;52631;42.208;24.656;2023-07-13T03:40:20;18.00;;;10.07;;
65855;SDS011;52631;42.208;24.656;2023-07-13T03:42:46;14.98;;;10.20;;
65855;SDS011;52631;42.208;24.656;2023-07-13T03:45:11;15.07;;;10.90;;
65855;SDS011;52631;42.208;24.656;2023-07-13T03:47:37;14.35;;;11.05;;
65855;SDS011;52631;42.208;24.656;2023-07-13T03:50:02;16.55;;;11.13;;
65855;SDS011;52631;42.208;24.656;2023-07-13T03:52:28;16.77;;;10.57;;
65855;SDS011;52631;42.208;24.656;2023-07-13T03:54:54;19.83;;;10.45;;
65855;SDS011;52631;42.208;24.656;2023-07-13T03:57:19;18.55;;;10.20;;
65855;SDS011;52631;42.208;24.656;2023-07-13T03:59:45;14.10;;;10.07;;
65855;SDS011;52631;42.208;24.656;2023-07-13T04:02:10;16.80;;;11.18;;
65855;SDS011;52631;42.208;24.656;2023-07-13T04:04:36;16.23;;;10.35;;
65855;SDS011;52631;42.208;24.656;2023-07-13T04:07:03;15.70;;;9.98;;
65855;SDS011;52631;42.208;24.656;2023-07-13T04:09:29;15.35;;;10.20;;
65855;SDS011;52631;42.208;24.656;2023-07-13T04:11:54;16.92;;;10.57;;
65855;SDS011;52631;42.208;24.656;2023-07-13T04:14:20;15.68;;;10.02;;
65855;SDS011;52631;42.208;24.656;2023-07-13T04:16:45;15.32;;;10.20;;
65855;SDS011;52631;42.208;24.656;2023-07-13T04:19:13;14.93;;;10.68;;
65855;SDS011;52631;42.208;24.656;2023-07-13T04:21:38;17.42;;;11.70;;
65855;SDS011;52631;42.208;24.656;2023-07-13T04:24:04;15.10;;;10.85;;
65855;SDS011;52631;42.208;24.656;2023-07-13T04:26:29;16.42;;;11.10;;
65855;SDS011;52631;42.208;24.656;2023-07-13T04:28:55;15.90;;;10.95;;
65855;SDS011;52631;42.208;24.656;2023-07-13T04:31:21;17.02;;;11.50;;
65855;SDS011;52631;42.208;24.656;2023-07-13T04:33:47;17.63;;;11.25;;
65855;SDS011;52631;42.208;24.656;2023-07-13T04:36:14;19.40;;;11.85;;
65855;SDS011;52631;42.208;24.656;2023-07-13T04:38:40;14.57;;;10.55;;
65855;SDS011;52631;42.208;24.656;2023-07-13T04:41:06;14.75;;;11.30;;
65855;SDS011;52631;42.208;24.656;2023-07-13T04:43:32;18.27;;;12.10;;
65855;SDS011;52631;42.208;24.656;2023-07-13T04:46:02;17.95;;;11.40;;
65855;SDS011;52631;42.208;24.656;2023-07-13T04:48:29;15.27;;;10.73;;
65855;SDS011;52631;42.208;24.656;2023-07-13T04:50:55;16.67;;;11.55;;
65855;SDS011;52631;42.208;24.656;2023-07-13T04:53:21;16.95;;;11.02;;
65855;SDS011;52631;42.208;24.656;2023-07-13T04:55:47;14.38;;;10.90;;
65855;SDS011;52631;42.208;24.656;2023-07-13T04:58:13;16.25;;;10.65;;
65855;SDS011;52631;42.208;24.656;2023-07-13T05:00:38;15.32;;;10.88;;
65855;SDS011;52631;42.208;24.656;2023-07-13T05:03:04;14.63;;;10.90;;
65855;SDS011;52631;42.208;24.656;2023-07-13T05:05:29;14.90;;;9.90;;
65855;SDS011;52631;42.208;24.656;2023-07-13T05:07:55;14.43;;;11.20;;
65855;SDS011;52631;42.208;24.656;2023-07-13T05:10:21;16.88;;;11.13;;
65855;SDS011;52631;42.208;24.656;2023-07-13T05:12:46;13.48;;;10.10;;
65855;SDS011;52631;42.208;24.656;2023-07-13T05:15:12;13.57;;;10.43;;
65855;SDS011;52631;42.208;24.656;2023-07-13T05:17:37;15.25;;;9.63;;
65855;SDS011;52631;42.208;24.656;2023-07-13T05:20:04;13.32;;;10.10;;
65855;SDS011;52631;42.208;24.656;2023-07-13T05:22:30;15.18;;;9.60;;
65855;SDS011;52631;42.208;24.656;2023-07-13T05:24:56;13.07;;;9.63;;
65855;SDS011;52631;42.208;24.656;2023-07-13T05:27:22;14.00;;;9.45;;
65855;SDS011;52631;42.208;24.656;2023-07-13T05:29:48;18.38;;;9.90;;
65855;SDS011;52631;42.208;24.656;2023-07-13T05:32:14;14.93;;;9.88;;
65855;SDS011;52631;42.208;24.656;2023-07-13T05:34:39;13.23;;;8.98;;
65855;SDS011;52631;42.208;24.656;2023-07-13T05:37:04;15.30;;;10.48;;
65855;SDS011;52631;42.208;24.656;2023-07-13T05:39:30;12.65;;;9.13;;
65855;SDS011;52631;42.208;24.656;2023-07-13T05:41:55;13.48;;;9.40;;
65855;SDS011;52631;42.208;24.656;2023-07-13T05:44:21;13.57;;;9.25;;
65855;SDS011;52631;42.208;24.656;2023-07-13T05:46:46;11.75;;;9.25;;
65855;SDS011;52631;42.208;24.656;2023-07-13T05:49:12;14.93;;;10.25;;
65855;SDS011;52631;42.208;24.656;2023-07-13T05:51:37;14.63;;;9.43;;
65855;SDS011;52631;42.208;24.656;2023-07-13T05:54:03;12.93;;;8.98;;
65855;SDS011;52631;42.208;24.656;2023-07-13T05:56:28;9.68;;;7.93;;
65855;SDS011;52631;42.208;24.656;2023-07-13T05:58:54;12.05;;;8.23;;
65855;SDS011;52631;42.208;24.656;2023-07-13T06:01:19;13.27;;;9.43;;
65855;SDS011;52631;42.208;24.656;2023-07-13T06:03:46;11.70;;;8.95;;
65855;SDS011;52631;42.208;24.656;2023-07-13T06:06:12;12.25;;;8.52;;
65855;SDS011;52631;42.208;24.656;2023-07-13T06:08:37;14.10;;;9.25;;
65855;SDS011;52631;42.208;24.656;2023-07-13T06:11:10;14.98;;;9.18;;
65855;SDS011;52631;42.208;24.656;2023-07-13T06:13:39;14.38;;;8.50;;
65855;SDS011;52631;42.208;24.656;2023-07-13T06:16:05;13.13;;;8.60;;
65855;SDS011;52631;42.208;24.656;2023-07-13T06:18:32;13.55;;;8.45;;
65855;SDS011;52631;42.208;24.656;2023-07-13T06:20:58;13.38;;;8.80;;
65855;SDS011;52631;42.208;24.656;2023-07-13T06:23:24;12.55;;;9.15;;
65855;SDS011;52631;42.208;24.656;2023-07-13T06:25:50;11.95;;;8.68;;
65855;SDS011;52631;42.208;24.656;2023-07-13T06:28:15;16.38;;;9.50;;
65855;SDS011;52631;42.208;24.656;2023-07-13T06:30:41;12.45;;;8.93;;
65855;SDS011;52631;42.208;24.656;2023-07-13T06:33:06;11.63;;;9.05;;
65855;SDS011;52631;42.208;24.656;2023-07-13T06:35:31;13.45;;;8.73;;
65855;SDS011;52631;42.208;24.656;2023-07-13T06:37:57;16.20;;;8.82;;
65855;SDS011;52631;42.208;24.656;2023-07-13T06:40:22;11.05;;;8.38;;
65855;SDS011;52631;42.208;24.656;2023-07-13T06:42:48;12.98;;;8.90;;
65855;SDS011;52631;42.208;24.656;2023-07-13T06:45:13;12.68;;;8.40;;
65855;SDS011;52631;42.208;24.656;2023-07-13T06:47:39;12.10;;;8.25;;
65855;SDS011;52631;42.208;24.656;2023-07-13T06:50:04;11.35;;;8.30;;
65855;SDS011;52631;42.208;24.656;2023-07-13T06:52:30;12.57;;;8.32;;
65855;SDS011;52631;42.208;24.656;2023-07-13T06:54:56;14.55;;;8.45;;
65855;SDS011;52631;42.208;24.656;2023-07-13T06:57:21;12.50;;;8.23;;
65855;SDS011;52631;42.208;24.656;2023-07-13T06:59:47;14.48;;;8.75;;
65855;SDS011;52631;42.208;24.656;2023-07-13T07:02:13;11.82;;;8.55;;
65855;SDS011;52631;42.208;24.656;2023-07-13T07:04:38;13.38;;;8.27;;
65855;SDS011;52631;42.208;24.656;2023-07-13T07:07:04;11.88;;;7.93;;
65855;SDS011;52631;42.208;24.656;2023-07-13T07:09:29;13.25;;;7.95;;
65855;SDS011;52631;42.208;24.656;2023-07-13T07:11:56;10.05;;;7.97;;
65855;SDS011;52631;42.208;24.656;2023-07-13T07:14:21;9.85;;;7.65;;
65855;SDS011;52631;42.208;24.656;2023-07-13T07:16:47;11.48;;;8.23;;
65855;SDS011;52631;42.208;24.656;2023-07-13T07:19:13;10.57;;;8.02;;
65855;SDS011;52631;42.208;24.656;2023-07-13T07:21:38;9.98;;;8.02;;
65855;SDS011;52631;42.208;24.656;2023-07-13T07:24:04;10.32;;;8.02;;
65855;SDS011;52631;42.208;24.656;2023-07-13T07:26:30;11.60;;;8.63;;
65855;SDS011;52631;42.208;24.656;2023-07-13T07:28:56;11.57;;;7.47;;
65855;SDS011;52631;42.208;24.656;2023-07-13T07:31:21;14.13;;;7.28;;
65855;SDS011;52631;42.208;24.656;2023-07-13T07:33:46;12.65;;;7.18;;
65855;SDS011;52631;42.208;24.656;2023-07-13T07:36:14;11.30;;;6.28;;
65855;SDS011;52631;42.208;24.656;2023-07-13T07:38:41;8.73;;;5.78;;
65855;SDS011;52631;42.208;24.656;2023-07-13T07:41:06;12.77;;;6.13;;
65855;SDS011;52631;42.208;24.656;2023-07-13T07:43:32;9.00;;;5.97;;
65855;SDS011;52631;42.208;24.656;2023-07-13T07:45:58;7.88;;;5.60;;
65855;SDS011;52631;42.208;24.656;2023-07-13T07:48:23;10.77;;;6.40;;
65855;SDS011;52631;42.208;24.656;2023-07-13T07:50:48;9.00;;;6.18;;
65855;SDS011;52631;42.208;24.656;2023-07-13T07:53:14;8.63;;;6.43;;
65855;SDS011;52631;42.208;24.656;2023-07-13T07:55:39;8.45;;;6.10;;
65855;SDS011;52631;42.208;24.656;2023-07-13T07:58:05;11.05;;;7.32;;
65855;SDS011;52631;42.208;24.656;2023-07-13T08:00:31;10.63;;;7.30;;
65855;SDS011;52631;42.208;24.656;2023-07-13T08:02:57;10.18;;;7.07;;
65855;SDS011;52631;42.208;24.656;2023-07-13T08:05:23;10.90;;;7.20;;
65855;SDS011;52631;42.208;24.656;2023-07-13T08:07:49;7.97;;;6.93;;
65855;SDS011;52631;42.208;24.656;2023-07-13T08:10:15;13.27;;;7.35;;
65855;SDS011;52631;42.208;24.656;2023-07-13T08:12:40;8.48;;;7.25;;
65855;SDS011;52631;42.208;24.656;2023-07-13T08:15:08;9.80;;;7.43;;
65855;SDS011;52631;42.208;24.656;2023-07-13T08:17:35;7.87;;;6.07;;
65855;SDS011;52631;42.208;24.656;2023-07-13T08:20:01;8.63;;;6.40;;
65855;SDS011;52631;42.208;24.656;2023-07-13T08:22:27;9.15;;;5.75;;
65855;SDS011;52631;42.208;24.656;2023-07-13T08:24:53;10.25;;;6.05;;
65855;SDS011;52631;42.208;24.656;2023-07-13T08:27:26;7.63;;;6.47;;
65855;SDS011;52631;42.208;24.656;2023-07-13T08:29:52;12.57;;;6.43;;
65855;SDS011;52631;42.208;24.656;2023-07-13T08:32:18;10.25;;;6.28;;
65855;SDS011;52631;42.208;24.656;2023-07-13T08:34:44;8.85;;;6.07;;
65855;SDS011;52631;42.208;24.656;2023-07-13T08:37:10;7.90;;;6.20;;
65855;SDS011;52631;42.208;24.656;2023-07-13T08:39:35;7.70;;;6.35;;
65855;SDS011;52631;42.208;24.656;2023-07-13T08:42:03;7.88;;;6.30;;
65855;SDS011;52631;42.208;24.656;2023-07-13T08:44:44;8.18;;;6.78;;
65855;SDS011;52631;42.208;24.656;2023-07-13T08:47:16;9.25;;;6.32;;
65855;SDS011;52631;42.208;24.656;2023-07-13T08:49:42;10.48;;;6.88;;
65855;SDS011;52631;42.208;24.656;2023-07-13T08:54:44;10.57;;;7.28;;
65855;SDS011;52631;42.208;24.656;2023-07-13T08:57:13;8.57;;;6.60;;
65855;SDS011;52631;42.208;24.656;2023-07-13T08:59:40;7.53;;;5.57;;
65855;SDS011;52631;42.208;24.656;2023-07-13T09:04:45;7.13;;;5.90;;
65855;SDS011;52631;42.208;24.656;2023-07-13T09:10:00;9.93;;;6.00;;
65855;SDS011;52631;42.208;24.656;2023-07-13T09:15:26;9.35;;;5.35;;
65855;SDS011;52631;42.208;24.656;2023-07-13T09:17:56;6.70;;;5.82;;
65855;SDS011;52631;42.208;24.656;2023-07-13T09:20:34;8.13;;;6.00;;
65855;SDS011;52631;42.208;24.656;2023-07-13T09:23:04;12.35;;;5.97;;
65855;SDS011;52631;42.208;24.656;2023-07-13T09:25:32;8.20;;;5.50;;
65855;SDS011;52631;42.208;24.656;2023-07-13T09:28:00;7.30;;;6.05;;
65855;SDS011;52631;42.208;24.656;2023-07-13T09:31:04;7.88;;;5.82;;
65855;SDS011;52631;42.208;24.656;2023-07-13T09:33:32;7.70;;;5.82;;
65855;SDS011;52631;42.208;24.656;2023-07-13T09:36:00;7.88;;;6.05;;
65855;SDS011;52631;42.208;24.656;2023-07-13T09:38:27;8.38;;;5.63;;
65855;SDS011;52631;42.208;24.656;2023-07-13T09:44:06;8.73;;;5.53;;
65855;SDS011;52631;42.208;24.656;2023-07-13T09:46:33;8.80;;;5.72;;
65855;SDS011;52631;42.208;24.656;2023-07-13T09:48:59;8.15;;;5.80;;
65855;SDS011;52631;42.208;24.656;2023-07-13T09:51:24;8.90;;;6.10;;
65855;SDS011;52631;42.208;24.656;2023-07-13T09:53:50;7.28;;;6.07;;
65855;SDS011;52631;42.208;24.656;2023-07-13T09:56:19;7.72;;;5.75;;
65855;SDS011;52631;42.208;24.656;2023-07-13T09:58:49;7.70;;;5.90;;
65855;SDS011;52631;42.208;24.656;2023-07-13T10:01:14;7.85;;;5.80;;
65855;SDS011;52631;42.208;24.656;2023-07-13T10:03:42;7.75;;;5.80;;
65855;SDS011;52631;42.208;24.656;2023-07-13T10:06:19;7.20;;;5.72;;
65855;SDS011;52631;42.208;24.656;2023-07-13T10:08:47;7.05;;;4.65;;
65855;SDS011;52631;42.208;24.656;2023-07-13T10:11:18;5.32;;;4.10;;
65855;SDS011;52631;42.208;24.656;2023-07-13T10:13:47;7.05;;;4.30;;
65855;SDS011;52631;42.208;24.656;2023-07-13T10:16:15;6.72;;;4.65;;
65855;SDS011;52631;42.208;24.656;2023-07-13T10:18:49;6.75;;;5.10;;
65855;SDS011;52631;42.208;24.656;2023-07-13T10:23:50;8.45;;;4.90;;
65855;SDS011;52631;42.208;24.656;2023-07-13T10:26:23;6.47;;;4.70;;
65855;SDS011;52631;42.208;24.656;2023-07-13T10:28:52;8.27;;;4.60;;
65855;SDS011;52631;42.208;24.656;2023-07-13T10:31:20;7.45;;;4.78;;
65855;SDS011;52631;42.208;24.656;2023-07-13T10:33:46;6.45;;;4.53;;
65855;SDS011;52631;42.208;24.656;2023-07-13T10:36:13;6.20;;;4.57;;
65855;SDS011;52631;42.208;24.656;2023-07-13T10:38:43;8.02;;;4.95;;
65855;SDS011;52631;42.208;24.656;2023-07-13T10:41:14;6.50;;;4.60;;
65855;SDS011;52631;42.208;24.656;2023-07-13T10:43:42;7.10;;;5.00;;
65855;SDS011;52631;42.208;24.656;2023-07-13T10:46:11;7.30;;;4.82;;
65855;SDS011;52631;42.208;24.656;2023-07-13T10:51:04;7.05;;;5.07;;
65855;SDS011;52631;42.208;24.656;2023-07-13T10:53:35;8.55;;;5.20;;
65855;SDS011;52631;42.208;24.656;2023-07-13T10:56:08;6.50;;;5.53;;
65855;SDS011;52631;42.208;24.656;2023-07-13T10:58:45;6.20;;;4.82;;
65855;SDS011;52631;42.208;24.656;2023-07-13T11:01:15;8.27;;;5.05;;
65855;SDS011;52631;42.208;24.656;2023-07-13T11:03:53;7.00;;;4.60;;
65855;SDS011;52631;42.208;24.656;2023-07-13T11:09:30;8.13;;;5.00;;
65855;SDS011;52631;42.208;24.656;2023-07-13T11:11:47;8.37;;;4.87;;
65855;SDS011;52631;42.208;24.656;2023-07-13T11:14:29;7.80;;;5.57;;
65855;SDS011;52631;42.208;24.656;2023-07-13T11:17:09;13.65;;;5.90;;
65855;SDS011;52631;42.208;24.656;2023-07-13T11:20:07;8.40;;;5.00;;
65855;SDS011;52631;42.208;24.656;2023-07-13T11:22:52;7.97;;;5.32;;
65855;SDS011;52631;42.208;24.656;2023-07-13T11:25:37;7.25;;;4.68;;
65855;SDS011;52631;42.208;24.656;2023-07-13T11:30:36;7.25;;;4.70;;
65855;SDS011;52631;42.208;24.656;2023-07-13T11:38:32;8.30;;;5.00;;
65855;SDS011;52631;42.208;24.656;2023-07-13T11:41:27;10.20;;;4.90;;
65855;SDS011;52631;42.208;24.656;2023-07-13T11:44:01;7.43;;;4.45;;
65855;SDS011;52631;42.208;24.656;2023-07-13T11:46:30;8.93;;;4.82;;
65855;SDS011;52631;42.208;24.656;2023-07-13T11:48:55;7.00;;;4.65;;
65855;SDS011;52631;42.208;24.656;2023-07-13T11:51:31;15.48;;;5.13;;
65855;SDS011;52631;42.208;24.656;2023-07-13T11:53:58;7.55;;;4.55;;
65855;SDS011;52631;42.208;24.656;2023-07-13T11:56:28;6.95;;;4.80;;
65855;SDS011;52631;42.208;24.656;2023-07-13T11:58:55;9.10;;;5.22;;
65855;SDS011;52631;42.208;24.656;2023-07-13T12:01:22;10.20;;;4.68;;
65855;SDS011;52631;42.208;24.656;2023-07-13T12:03:50;9.13;;;4.40;;
65855;SDS011;52631;42.208;24.656;2023-07-13T12:06:38;9.88;;;4.80;;
65855;SDS011;52631;42.208;24.656;2023-07-13T12:09:12;7.95;;;4.70;;
65855;SDS011;52631;42.208;24.656;2023-07-13T12:11:41;10.02;;;4.72;;
65855;SDS011;52631;42.208;24.656;2023-07-13T12:14:17;13.30;;;5.13;;
65855;SDS011;52631;42.208;24.656;2023-07-13T12:16:44;11.30;;;5.05;;
65855;SDS011;52631;42.208;24.656;2023-07-13T12:19:20;11.02;;;5.00;;
65855;SDS011;52631;42.208;24.656;2023-07-13T12:21:53;9.10;;;4.90;;
65855;SDS011;52631;42.208;24.656;2023-07-13T12:24:19;6.63;;;4.70;;
65855;SDS011;52631;42.208;24.656;2023-07-13T12:26:51;7.95;;;4.57;;
65855;SDS011;52631;42.208;24.656;2023-07-13T12:29:17;7.30;;;4.75;;
65855;SDS011;52631;42.208;24.656;2023-07-13T12:31:44;9.10;;;4.90;;
65855;SDS011;52631;42.208;24.656;2023-07-13T12:34:15;9.15;;;4.68;;
65855;SDS011;52631;42.208;24.656;2023-07-13T12:39:17;9.40;;;5.10;;
65855;SDS011;52631;42.208;24.656;2023-07-13T12:41:44;8.38;;;4.10;;
65855;SDS011;52631;42.208;24.656;2023-07-13T12:44:27;10.93;;;5.05;;
65855;SDS011;52631;42.208;24.656;2023-07-13T12:46:58;10.85;;;4.75;;
65855;SDS011;52631;42.208;24.656;2023-07-13T12:49:30;9.27;;;4.90;;
65855;SDS011;52631;42.208;24.656;2023-07-13T12:51:59;10.60;;;4.68;;
65855;SDS011;52631;42.208;24.656;2023-07-13T12:54:27;6.75;;;4.40;;
65855;SDS011;52631;42.208;24.656;2023-07-13T12:56:54;9.13;;;4.80;;
65855;SDS011;52631;42.208;24.656;2023-07-13T12:59:22;7.90;;;4.50;;
65855;SDS011;52631;42.208;24.656;2023-07-13T13:01:48;8.63;;;4.90;;
65855;SDS011;52631;42.208;24.656;2023-07-13T13:04:18;9.10;;;4.60;;
65855;SDS011;52631;42.208;24.656;2023-07-13T13:06:46;10.65;;;4.65;;
65855;SDS011;52631;42.208;24.656;2023-07-13T13:09:13;14.20;;;5.15;;
65855;SDS011;52631;42.208;24.656;2023-07-13T13:11:39;8.80;;;4.57;;
65855;SDS011;52631;42.208;24.656;2023-07-13T13:14:06;11.55;;;4.15;;
65855;SDS011;52631;42.208;24.656;2023-07-13T13:16:33;12.00;;;3.72;;
65855;SDS011;52631;42.208;24.656;2023-07-13T13:21:56;9.00;;;4.03;;
65855;SDS011;52631;42.208;24.656;2023-07-13T13:24:22;9.93;;;3.70;;
65855;SDS011;52631;42.208;24.656;2023-07-13T13:26:49;11.82;;;4.00;;
65855;SDS011;52631;42.208;24.656;2023-07-13T13:29:17;11.02;;;4.00;;
65855;SDS011;52631;42.208;24.656;2023-07-13T13:31:44;10.55;;;4.05;;
65855;SDS011;52631;42.208;24.656;2023-07-13T13:34:14;10.38;;;4.05;;
65855;SDS011;52631;42.208;24.656;2023-07-13T13:36:41;15.10;;;4.40;;
65855;SDS011;52631;42.208;24.656;2023-07-13T13:39:15;12.70;;;4.53;;
65855;SDS011;52631;42.208;24.656;2023-07-13T13:41:43;13.63;;;4.20;;
65855;SDS011;52631;42.208;24.656;2023-07-13T13:44:09;12.85;;;4.10;;
65855;SDS011;52631;42.208;24.656;2023-07-13T13:46:36;11.80;;;3.70;;
65855;SDS011;52631;42.208;24.656;2023-07-13T13:49:02;9.93;;;4.32;;
65855;SDS011;52631;42.208;24.656;2023-07-13T13:51:27;12.60;;;4.30;;
65855;SDS011;52631;42.208;24.656;2023-07-13T13:53:54;14.55;;;4.07;;
65855;SDS011;52631;42.208;24.656;2023-07-13T13:56:20;11.30;;;4.22;;
65855;SDS011;52631;42.208;24.656;2023-07-13T13:58:46;10.93;;;3.80;;
65855;SDS011;52631;42.208;24.656;2023-07-13T14:01:12;12.20;;;4.50;;
65855;SDS011;52631;42.208;24.656;2023-07-13T14:03:39;13.80;;;3.90;;
65855;SDS011;52631;42.208;24.656;2023-07-13T14:06:04;8.15;;;4.15;;
65855;SDS011;52631;42.208;24.656;2023-07-13T14:08:30;16.02;;;4.30;;
65855;SDS011;52631;42.208;24.656;2023-07-13T14:10:56;12.05;;;4.43;;
65855;SDS011;52631;42.208;24.656;2023-07-13T14:13:32;12.07;;;4.53;;
65855;SDS011;52631;42.208;24.656;2023-07-13T14:18:27;12.05;;;4.22;;
65855;SDS011;52631;42.208;24.656;2023-07-13T14:20:53;8.18;;;3.55;;
65855;SDS011;52631;42.208;24.656;2023-07-13T14:23:18;14.70;;;4.45;;
65855;SDS011;52631;42.208;24.656;2023-07-13T14:25:45;11.23;;;3.88;;
65855;SDS011;52631;42.208;24.656;2023-07-13T14:28:24;15.27;;;4.30;;
65855;SDS011;52631;42.208;24.656;2023-07-13T14:30:53;13.52;;;4.80;;
65855;SDS011;52631;42.208;24.656;2023-07-13T14:33:21;12.20;;;4.20;;
65855;SDS011;52631;42.208;24.656;2023-07-13T14:35:47;14.27;;;4.32;;
65855;SDS011;52631;42.208;24.656;2023-07-13T14:38:15;23.38;;;4.63;;
65855;SDS011;52631;42.208;24.656;2023-07-13T14:40:45;9.95;;;4.25;;
65855;SDS011;52631;42.208;24.656;2023-07-13T14:43:12;11.85;;;4.00;;
65855;SDS011;52631;42.208;24.656;2023-07-13T14:45:39;9.27;;;4.00;;
65855;SDS011;52631;42.208;24.656;2023-07-13T14:48:16;11.15;;;4.47;;
65855;SDS011;52631;42.208;24.656;2023-07-13T14:50:44;11.43;;;3.95;;
65855;SDS011;52631;42.208;24.656;2023-07-13T14:53:11;18.38;;;4.78;;
65855;SDS011;52631;42.208;24.656;2023-07-13T14:55:37;15.95;;;4.28;;
65855;SDS011;52631;42.208;24.656;2023-07-13T14:58:03;17.35;;;3.90;;
65855;SDS011;52631;42.208;24.656;2023-07-13T15:00:28;14.07;;;4.38;;
65855;SDS011;52631;42.208;24.656;2023-07-13T15:02:55;21.00;;;4.85;;